sensor_id;sensor_type;location;lat;lon;timestamp;temperature;humidity
19039;DHT22;9652;49.014;12.052;2022-10-15T00:01:08;17.80;79.40
19039;DHT22;9652;49.014;12.052;2022-10-15T00:03:38;17.80;79.60
19039;DHT22;9652;49.014;12.052;2022-10-15T00:06:07;17.80;79.60
19039;DHT22;9652;49.014;12.052;2022-10-15T00:08:37;17.80;79.60
19039;DHT22;9652;49.014;12.052;2022-10-15T00:11:06;17.70;79.50
19039;DHT22;9652;49.014;12.052;2022-10-15T00:13:36;17.70;80.30
19039;DHT22;9652;49.014;12.052;2022-10-15T00:16:07;17.70;80.40
19039;DHT22;9652;49.014;12.052;2022-10-15T00:18:37;17.70;79.60
19039;DHT22;9652;49.014;12.052;2022-10-15T00:21:06;17.70;80.40
19039;DHT22;9652;49.014;12.052;2022-10-15T00:23:35;17.70;79.60
19039;DHT22;9652;49.014;12.052;2022-10-15T00:26:04;17.70;79.70
19039;DHT22;9652;49.014;12.052;2022-10-15T00:28:33;17.70;79.80
19039;DHT22;9652;49.014;12.052;2022-10-15T00:31:04;17.70;79.70
19039;DHT22;9652;49.014;12.052;2022-10-15T00:33:35;17.70;79.80
19039;DHT22;9652;49.014;12.052;2022-10-15T00:36:05;17.70;79.90
19039;DHT22;9652;49.014;12.052;2022-10-15T00:38:34;17.70;79.90
19039;DHT22;9652;49.014;12.052;2022-10-15T00:41:03;17.60;79.80
19039;DHT22;9652;49.014;12.052;2022-10-15T00:43:36;17.70;79.90
19039;DHT22;9652;49.014;12.052;2022-10-15T00:46:11;17.70;80.10
19039;DHT22;9652;49.014;12.052;2022-10-15T00:48:45;17.70;80.10
19039;DHT22;9652;49.014;12.052;2022-10-15T00:51:17;17.70;80.20
19039;DHT22;9652;49.014;12.052;2022-10-15T00:53:46;17.70;80.20
19039;DHT22;9652;49.014;12.052;2022-10-15T00:56:19;17.70;80.40
19039;DHT22;9652;49.014;12.052;2022-10-15T00:58:48;17.70;80.70
19039;DHT22;9652;49.014;12.052;2022-10-15T01:01:16;17.70;80.70
19039;DHT22;9652;49.014;12.052;2022-10-15T01:03:45;17.60;80.70
19039;DHT22;9652;49.014;12.052;2022-10-15T01:06:12;17.60;80.70
19039;DHT22;9652;49.014;12.052;2022-10-15T01:08:41;17.60;80.80
19039;DHT22;9652;49.014;12.052;2022-10-15T01:11:29;17.60;80.90
19039;DHT22;9652;49.014;12.052;2022-10-15T01:14:15;17.60;81.60
19039;DHT22;9652;49.014;12.052;2022-10-15T01:16:55;17.60;81.40
19039;DHT22;9652;49.014;12.052;2022-10-15T01:23:09;17.60;81.80
19039;DHT22;9652;49.014;12.052;2022-10-15T01:25:57;17.60;81.70
19039;DHT22;9652;49.014;12.052;2022-10-15T01:28:43;17.50;81.60
19039;DHT22;9652;49.014;12.052;2022-10-15T01:31:24;17.50;81.60
19039;DHT22;9652;49.014;12.052;2022-10-15T01:34:01;17.50;81.60
19039;DHT22;9652;49.014;12.052;2022-10-15T01:36:33;17.50;81.60
19039;DHT22;9652;49.014;12.052;2022-10-15T01:39:08;17.50;81.60
19039;DHT22;9652;49.014;12.052;2022-10-15T01:41:42;17.50;81.60
19039;DHT22;9652;49.014;12.052;2022-10-15T01:44:17;17.60;81.70
19039;DHT22;9652;49.014;12.052;2022-10-15T01:47:11;17.50;81.60
19039;DHT22;9652;49.014;12.052;2022-10-15T01:49:44;17.50;81.60
19039;DHT22;9652;49.014;12.052;2022-10-15T01:52:17;17.50;81.60
19039;DHT22;9652;49.014;12.052;2022-10-15T01:54:48;17.50;81.60
19039;DHT22;9652;49.014;12.052;2022-10-15T01:57:20;17.50;81.60
19039;DHT22;9652;49.014;12.052;2022-10-15T01:59:50;17.50;81.60
19039;DHT22;9652;49.014;12.052;2022-10-15T02:02:23;17.50;81.60
19039;DHT22;9652;49.014;12.052;2022-10-15T02:04:51;17.50;81.70
19039;DHT22;9652;49.014;12.052;2022-10-15T02:07:29;17.50;81.70
19039;DHT22;9652;49.014;12.052;2022-10-15T02:10:15;17.50;81.90
19039;DHT22;9652;49.014;12.052;2022-10-15T02:12:51;17.50;81.90
19039;DHT22;9652;49.014;12.052;2022-10-15T02:15:36;17.50;81.90
19039;DHT22;9652;49.014;12.052;2022-10-15T02:18:17;17.50;81.70
19039;DHT22;9652;49.014;12.052;2022-10-15T02:20:54;17.50;81.80
19039;DHT22;9652;49.014;12.052;2022-10-15T02:23:26;17.50;81.70
19039;DHT22;9652;49.014;12.052;2022-10-15T02:26:03;17.50;81.70
19039;DHT22;9652;49.014;12.052;2022-10-15T02:28:36;17.50;81.60
19039;DHT22;9652;49.014;12.052;2022-10-15T02:31:07;17.50;81.90
19039;DHT22;9652;49.014;12.052;2022-10-15T02:33:40;17.50;81.80
19039;DHT22;9652;49.014;12.052;2022-10-15T02:36:11;17.50;81.90
19039;DHT22;9652;49.014;12.052;2022-10-15T02:38:40;17.50;81.90
19039;DHT22;9652;49.014;12.052;2022-10-15T02:41:10;17.50;81.80
19039;DHT22;9652;49.014;12.052;2022-10-15T02:43:40;17.50;81.90
19039;DHT22;9652;49.014;12.052;2022-10-15T02:46:09;17.50;81.90
19039;DHT22;9652;49.014;12.052;2022-10-15T02:48:39;17.50;81.90
19039;DHT22;9652;49.014;12.052;2022-10-15T02:51:06;17.50;82.00
19039;DHT22;9652;49.014;12.052;2022-10-15T02:53:34;17.50;81.90
19039;DHT22;9652;49.014;12.052;2022-10-15T02:56:02;17.50;81.90
19039;DHT22;9652;49.014;12.052;2022-10-15T02:58:30;17.40;81.80
19039;DHT22;9652;49.014;12.052;2022-10-15T03:00:57;17.40;81.90
19039;DHT22;9652;49.014;12.052;2022-10-15T03:03:25;17.40;82.00
19039;DHT22;9652;49.014;12.052;2022-10-15T03:05:54;17.40;82.10
19039;DHT22;9652;49.014;12.052;2022-10-15T03:08:21;17.40;82.10
19039;DHT22;9652;49.014;12.052;2022-10-15T03:10:48;17.40;82.10
19039;DHT22;9652;49.014;12.052;2022-10-15T03:13:16;17.40;82.90
19039;DHT22;9652;49.014;12.052;2022-10-15T03:15:48;17.40;82.20
19039;DHT22;9652;49.014;12.052;2022-10-15T03:18:15;17.40;82.20
19039;DHT22;9652;49.014;12.052;2022-10-15T03:20:42;17.40;82.20
19039;DHT22;9652;49.014;12.052;2022-10-15T03:23:11;17.40;82.20
19039;DHT22;9652;49.014;12.052;2022-10-15T03:25:38;17.40;82.20
19039;DHT22;9652;49.014;12.052;2022-10-15T03:28:06;17.40;82.10
19039;DHT22;9652;49.014;12.052;2022-10-15T03:30:40;17.40;82.10
19039;DHT22;9652;49.014;12.052;2022-10-15T03:33:09;17.40;82.20
19039;DHT22;9652;49.014;12.052;2022-10-15T03:35:37;17.40;82.20
19039;DHT22;9652;49.014;12.052;2022-10-15T03:38:06;17.30;82.20
19039;DHT22;9652;49.014;12.052;2022-10-15T03:40:35;17.40;82.30
19039;DHT22;9652;49.014;12.052;2022-10-15T03:43:40;17.40;82.40
19039;DHT22;9652;49.014;12.052;2022-10-15T03:46:08;17.40;82.20
19039;DHT22;9652;49.014;12.052;2022-10-15T03:48:39;17.40;82.30
19039;DHT22;9652;49.014;12.052;2022-10-15T03:51:09;17.40;82.30
19039;DHT22;9652;49.014;12.052;2022-10-15T03:53:37;17.40;82.40
19039;DHT22;9652;49.014;12.052;2022-10-15T03:56:07;17.40;82.50
19039;DHT22;9652;49.014;12.052;2022-10-15T03:58:37;17.40;82.50
19039;DHT22;9652;49.014;12.052;2022-10-15T04:01:09;17.40;82.50
19039;DHT22;9652;49.014;12.052;2022-10-15T04:03:39;17.40;82.60
19039;DHT22;9652;49.014;12.052;2022-10-15T04:06:07;17.40;82.60
19039;DHT22;9652;49.014;12.052;2022-10-15T04:08:35;17.40;82.70
19039;DHT22;9652;49.014;12.052;2022-10-15T04:11:18;17.40;82.60
19039;DHT22;9652;49.014;12.052;2022-10-15T04:13:54;17.40;82.70
19039;DHT22;9652;49.014;12.052;2022-10-15T04:16:21;17.40;82.60
19039;DHT22;9652;49.014;12.052;2022-10-15T04:18:48;17.50;82.70
19039;DHT22;9652;49.014;12.052;2022-10-15T04:21:15;17.50;82.60
19039;DHT22;9652;49.014;12.052;2022-10-15T04:23:48;17.50;82.70
19039;DHT22;9652;49.014;12.052;2022-10-15T04:26:23;17.50;82.70
19039;DHT22;9652;49.014;12.052;2022-10-15T04:28:50;17.50;82.70
19039;DHT22;9652;49.014;12.052;2022-10-15T04:31:19;17.50;82.80
19039;DHT22;9652;49.014;12.052;2022-10-15T04:33:48;17.50;82.70
19039;DHT22;9652;49.014;12.052;2022-10-15T04:36:15;17.50;82.70
19039;DHT22;9652;49.014;12.052;2022-10-15T04:38:57;17.50;82.70
19039;DHT22;9652;49.014;12.052;2022-10-15T04:41:42;17.50;82.70
19039;DHT22;9652;49.014;12.052;2022-10-15T04:44:20;17.50;82.60
19039;DHT22;9652;49.014;12.052;2022-10-15T04:46:52;17.50;82.60
19039;DHT22;9652;49.014;12.052;2022-10-15T04:49:42;17.40;82.60
19039;DHT22;9652;49.014;12.052;2022-10-15T04:52:26;17.50;82.80
19039;DHT22;9652;49.014;12.052;2022-10-15T04:54:58;17.50;82.90
19039;DHT22;9652;49.014;12.052;2022-10-15T04:57:28;17.50;82.90
19039;DHT22;9652;49.014;12.052;2022-10-15T04:59:56;17.50;82.90
19039;DHT22;9652;49.014;12.052;2022-10-15T05:02:29;17.60;83.10
19039;DHT22;9652;49.014;12.052;2022-10-15T05:05:09;17.60;83.10
19039;DHT22;9652;49.014;12.052;2022-10-15T05:07:46;17.60;83.10
19039;DHT22;9652;49.014;12.052;2022-10-15T05:10:14;17.50;82.90
19039;DHT22;9652;49.014;12.052;2022-10-15T05:12:43;17.60;83.00
19039;DHT22;9652;49.014;12.052;2022-10-15T05:15:10;17.50;83.10
19039;DHT22;9652;49.014;12.052;2022-10-15T05:17:37;17.60;83.10
19039;DHT22;9652;49.014;12.052;2022-10-15T05:20:05;17.60;83.10
19039;DHT22;9652;49.014;12.052;2022-10-15T05:22:32;17.60;83.10
19039;DHT22;9652;49.014;12.052;2022-10-15T05:25:01;17.60;83.10
19039;DHT22;9652;49.014;12.052;2022-10-15T05:27:37;17.60;83.20
19039;DHT22;9652;49.014;12.052;2022-10-15T05:30:07;17.60;83.30
19039;DHT22;9652;49.014;12.052;2022-10-15T05:32:50;17.60;83.40
19039;DHT22;9652;49.014;12.052;2022-10-15T05:35:19;17.60;83.40
19039;DHT22;9652;49.014;12.052;2022-10-15T05:38:07;17.60;83.40
19039;DHT22;9652;49.014;12.052;2022-10-15T05:40:34;17.60;83.30
19039;DHT22;9652;49.014;12.052;2022-10-15T05:43:17;17.60;83.40
19039;DHT22;9652;49.014;12.052;2022-10-15T05:45:48;17.50;83.30
19039;DHT22;9652;49.014;12.052;2022-10-15T05:48:19;17.60;83.30
19039;DHT22;9652;49.014;12.052;2022-10-15T05:50:46;17.60;83.20
19039;DHT22;9652;49.014;12.052;2022-10-15T05:53:21;17.60;83.20
19039;DHT22;9652;49.014;12.052;2022-10-15T05:55:52;17.60;83.30
19039;DHT22;9652;49.014;12.052;2022-10-15T05:58:19;17.70;83.40
19039;DHT22;9652;49.014;12.052;2022-10-15T06:00:53;17.60;83.40
19039;DHT22;9652;49.014;12.052;2022-10-15T06:03:20;17.70;83.60
19039;DHT22;9652;49.014;12.052;2022-10-15T06:05:48;17.70;83.50
19039;DHT22;9652;49.014;12.052;2022-10-15T06:08:15;17.70;83.40
19039;DHT22;9652;49.014;12.052;2022-10-15T06:10:43;17.70;83.40
19039;DHT22;9652;49.014;12.052;2022-10-15T06:13:10;17.60;83.40
19039;DHT22;9652;49.014;12.052;2022-10-15T06:15:38;17.70;83.40
19039;DHT22;9652;49.014;12.052;2022-10-15T06:18:09;17.70;83.40
19039;DHT22;9652;49.014;12.052;2022-10-15T06:20:41;17.60;83.40
19039;DHT22;9652;49.014;12.052;2022-10-15T06:23:10;17.70;83.60
19039;DHT22;9652;49.014;12.052;2022-10-15T06:25:37;17.70;83.70
19039;DHT22;9652;49.014;12.052;2022-10-15T06:28:06;17.70;83.70
19039;DHT22;9652;49.014;12.052;2022-10-15T06:30:40;17.80;83.80
19039;DHT22;9652;49.014;12.052;2022-10-15T06:33:09;17.70;83.60
19039;DHT22;9652;49.014;12.052;2022-10-15T06:35:36;17.80;83.70
19039;DHT22;9652;49.014;12.052;2022-10-15T06:38:05;17.80;83.70
19039;DHT22;9652;49.014;12.052;2022-10-15T06:40:32;17.70;84.40
19039;DHT22;9652;49.014;12.052;2022-10-15T06:43:04;17.90;83.70
19039;DHT22;9652;49.014;12.052;2022-10-15T06:45:33;17.80;83.80
19039;DHT22;9652;49.014;12.052;2022-10-15T06:48:05;17.80;83.80
19039;DHT22;9652;49.014;12.052;2022-10-15T06:50:35;17.90;83.90
19039;DHT22;9652;49.014;12.052;2022-10-15T06:53:04;17.90;83.80
19039;DHT22;9652;49.014;12.052;2022-10-15T06:55:32;17.90;83.80
19039;DHT22;9652;49.014;12.052;2022-10-15T06:58:00;17.90;83.80
19039;DHT22;9652;49.014;12.052;2022-10-15T07:00:28;17.90;83.70
19039;DHT22;9652;49.014;12.052;2022-10-15T07:02:55;17.90;83.70
19039;DHT22;9652;49.014;12.052;2022-10-15T07:05:22;17.90;83.70
19039;DHT22;9652;49.014;12.052;2022-10-15T07:07:55;17.90;83.70
19039;DHT22;9652;49.014;12.052;2022-10-15T07:10:24;18.00;83.90
19039;DHT22;9652;49.014;12.052;2022-10-15T07:12:53;18.00;83.90
19039;DHT22;9652;49.014;12.052;2022-10-15T07:15:20;18.00;84.00
19039;DHT22;9652;49.014;12.052;2022-10-15T07:17:48;18.00;84.20
19039;DHT22;9652;49.014;12.052;2022-10-15T07:20:17;18.10;84.50
19039;DHT22;9652;49.014;12.052;2022-10-15T07:22:44;18.10;84.70
19039;DHT22;9652;49.014;12.052;2022-10-15T07:25:13;18.20;84.80
19039;DHT22;9652;49.014;12.052;2022-10-15T07:27:41;18.30;84.90
19039;DHT22;9652;49.014;12.052;2022-10-15T07:30:09;18.30;84.70
19039;DHT22;9652;49.014;12.052;2022-10-15T07:32:36;18.30;84.70
19039;DHT22;9652;49.014;12.052;2022-10-15T07:35:04;18.40;84.70
19039;DHT22;9652;49.014;12.052;2022-10-15T07:37:32;18.40;84.50
19039;DHT22;9652;49.014;12.052;2022-10-15T07:39:59;18.50;84.60
19039;DHT22;9652;49.014;12.052;2022-10-15T07:42:27;18.40;85.20
19039;DHT22;9652;49.014;12.052;2022-10-15T07:44:54;18.50;84.40
19039;DHT22;9652;49.014;12.052;2022-10-15T07:47:22;18.50;84.50
19039;DHT22;9652;49.014;12.052;2022-10-15T07:49:49;18.60;84.60
19039;DHT22;9652;49.014;12.052;2022-10-15T07:52:16;18.70;84.90
19039;DHT22;9652;49.014;12.052;2022-10-15T07:54:43;18.70;85.00
19039;DHT22;9652;49.014;12.052;2022-10-15T07:57:13;18.70;85.00
19039;DHT22;9652;49.014;12.052;2022-10-15T07:59:41;18.70;85.10
19039;DHT22;9652;49.014;12.052;2022-10-15T08:02:13;18.80;85.40
19039;DHT22;9652;49.014;12.052;2022-10-15T08:04:41;18.90;85.30
19039;DHT22;9652;49.014;12.052;2022-10-15T08:07:08;18.90;85.10
19039;DHT22;9652;49.014;12.052;2022-10-15T08:09:35;19.00;85.10
19039;DHT22;9652;49.014;12.052;2022-10-15T08:12:03;19.10;85.00
19039;DHT22;9652;49.014;12.052;2022-10-15T08:14:31;19.10;84.80
19039;DHT22;9652;49.014;12.052;2022-10-15T08:17:00;19.10;84.70
19039;DHT22;9652;49.014;12.052;2022-10-15T08:19:28;19.10;84.70
19039;DHT22;9652;49.014;12.052;2022-10-15T08:21:55;19.20;84.80
19039;DHT22;9652;49.014;12.052;2022-10-15T08:24:23;19.20;84.50
19039;DHT22;9652;49.014;12.052;2022-10-15T08:26:50;19.20;84.40
19039;DHT22;9652;49.014;12.052;2022-10-15T08:29:18;19.30;84.30
19039;DHT22;9652;49.014;12.052;2022-10-15T08:31:45;19.20;84.30
19039;DHT22;9652;49.014;12.052;2022-10-15T08:34:13;19.30;84.40
19039;DHT22;9652;49.014;12.052;2022-10-15T08:36:40;19.30;84.40
19039;DHT22;9652;49.014;12.052;2022-10-15T08:39:07;19.30;84.50
19039;DHT22;9652;49.014;12.052;2022-10-15T08:41:38;19.40;84.70
19039;DHT22;9652;49.014;12.052;2022-10-15T08:44:14;19.40;84.80
19039;DHT22;9652;49.014;12.052;2022-10-15T08:46:51;19.40;84.70
19039;DHT22;9652;49.014;12.052;2022-10-15T08:49:30;19.50;84.70
19039;DHT22;9652;49.014;12.052;2022-10-15T08:52:11;19.50;84.80
19039;DHT22;9652;49.014;12.052;2022-10-15T08:54:46;19.60;84.90
19039;DHT22;9652;49.014;12.052;2022-10-15T08:57:23;19.60;84.50
19039;DHT22;9652;49.014;12.052;2022-10-15T09:00:03;19.70;84.40
19039;DHT22;9652;49.014;12.052;2022-10-15T09:02:41;19.70;84.60
19039;DHT22;9652;49.014;12.052;2022-10-15T09:05:26;19.80;84.70
19039;DHT22;9652;49.014;12.052;2022-10-15T09:08:04;19.80;84.90
19039;DHT22;9652;49.014;12.052;2022-10-15T09:10:45;19.80;85.00
19039;DHT22;9652;49.014;12.052;2022-10-15T09:13:19;19.90;85.00
19039;DHT22;9652;49.014;12.052;2022-10-15T09:15:54;20.00;84.90
19039;DHT22;9652;49.014;12.052;2022-10-15T09:18:27;20.10;85.00
19039;DHT22;9652;49.014;12.052;2022-10-15T09:21:01;20.10;84.90
19039;DHT22;9652;49.014;12.052;2022-10-15T09:23:32;20.20;85.40
19039;DHT22;9652;49.014;12.052;2022-10-15T09:26:05;20.20;85.60
19039;DHT22;9652;49.014;12.052;2022-10-15T09:28:46;20.30;85.60
19039;DHT22;9652;49.014;12.052;2022-10-15T09:31:24;20.50;85.50
19039;DHT22;9652;49.014;12.052;2022-10-15T09:34:00;20.60;84.50
19039;DHT22;9652;49.014;12.052;2022-10-15T09:36:36;20.70;84.40
19039;DHT22;9652;49.014;12.052;2022-10-15T09:39:31;20.70;84.10
19039;DHT22;9652;49.014;12.052;2022-10-15T09:42:15;20.80;83.20
19039;DHT22;9652;49.014;12.052;2022-10-15T09:44:53;20.80;83.00
19039;DHT22;9652;49.014;12.052;2022-10-15T09:47:26;20.80;82.70
19039;DHT22;9652;49.014;12.052;2022-10-15T09:50:01;20.80;82.40
19039;DHT22;9652;49.014;12.052;2022-10-15T09:52:53;20.90;82.60
19039;DHT22;9652;49.014;12.052;2022-10-15T09:55:36;20.80;81.90
19039;DHT22;9652;49.014;12.052;2022-10-15T09:58:13;20.90;82.20
19039;DHT22;9652;49.014;12.052;2022-10-15T10:00:57;20.90;82.40
19039;DHT22;9652;49.014;12.052;2022-10-15T10:03:30;20.90;82.20
19039;DHT22;9652;49.014;12.052;2022-10-15T10:06:06;20.90;82.90
19039;DHT22;9652;49.014;12.052;2022-10-15T10:08:48;21.00;82.60
19039;DHT22;9652;49.014;12.052;2022-10-15T10:11:17;21.10;82.70
19039;DHT22;9652;49.014;12.052;2022-10-15T10:13:51;21.10;82.70
19039;DHT22;9652;49.014;12.052;2022-10-15T10:16:20;21.10;82.00
19039;DHT22;9652;49.014;12.052;2022-10-15T10:19:11;21.20;82.10
19039;DHT22;9652;49.014;12.052;2022-10-15T10:21:41;21.20;81.30
19039;DHT22;9652;49.014;12.052;2022-10-15T10:24:26;21.30;81.90
19039;DHT22;9652;49.014;12.052;2022-10-15T10:26:55;21.30;81.40
19039;DHT22;9652;49.014;12.052;2022-10-15T10:29:24;21.30;81.70
19039;DHT22;9652;49.014;12.052;2022-10-15T10:31:52;21.40;81.70
19039;DHT22;9652;49.014;12.052;2022-10-15T10:34:27;21.40;81.60
19039;DHT22;9652;49.014;12.052;2022-10-15T10:37:01;21.40;81.40
19039;DHT22;9652;49.014;12.052;2022-10-15T10:39:32;21.40;80.90
19039;DHT22;9652;49.014;12.052;2022-10-15T10:42:03;21.50;80.80
19039;DHT22;9652;49.014;12.052;2022-10-15T10:44:32;21.50;80.70
19039;DHT22;9652;49.014;12.052;2022-10-15T10:47:09;21.50;80.60
19039;DHT22;9652;49.014;12.052;2022-10-15T10:49:40;21.50;80.30
19039;DHT22;9652;49.014;12.052;2022-10-15T10:52:22;21.50;80.10
19039;DHT22;9652;49.014;12.052;2022-10-15T10:54:59;21.50;79.30
19039;DHT22;9652;49.014;12.052;2022-10-15T10:57:40;21.50;79.40
19039;DHT22;9652;49.014;12.052;2022-10-15T11:00:14;21.50;79.30
19039;DHT22;9652;49.014;12.052;2022-10-15T11:02:47;21.40;79.80
19039;DHT22;9652;49.014;12.052;2022-10-15T11:05:27;21.50;80.40
19039;DHT22;9652;49.014;12.052;2022-10-15T11:08:01;21.50;80.80
19039;DHT22;9652;49.014;12.052;2022-10-15T11:10:43;21.60;80.80
19039;DHT22;9652;49.014;12.052;2022-10-15T11:13:35;21.70;80.70
19039;DHT22;9652;49.014;12.052;2022-10-15T11:16:18;21.80;79.70
19039;DHT22;9652;49.014;12.052;2022-10-15T11:19:02;21.80;80.20
19039;DHT22;9652;49.014;12.052;2022-10-15T11:21:46;21.90;79.60
19039;DHT22;9652;49.014;12.052;2022-10-15T11:24:31;21.90;80.00
19039;DHT22;9652;49.014;12.052;2022-10-15T11:27:14;22.00;79.90
19039;DHT22;9652;49.014;12.052;2022-10-15T11:29:54;22.00;79.50
19039;DHT22;9652;49.014;12.052;2022-10-15T11:32:37;22.10;80.20
19039;DHT22;9652;49.014;12.052;2022-10-15T11:35:31;22.20;81.20
19039;DHT22;9652;49.014;12.052;2022-10-15T11:38:14;22.30;80.00
19039;DHT22;9652;49.014;12.052;2022-10-15T11:41:05;22.40;79.50
19039;DHT22;9652;49.014;12.052;2022-10-15T11:44:23;22.50;78.80
19039;DHT22;9652;49.014;12.052;2022-10-15T11:47:11;22.60;78.70
19039;DHT22;9652;49.014;12.052;2022-10-15T11:49:53;22.70;78.80
19039;DHT22;9652;49.014;12.052;2022-10-15T11:52:40;22.70;78.60
19039;DHT22;9652;49.014;12.052;2022-10-15T11:55:19;22.80;77.50
19039;DHT22;9652;49.014;12.052;2022-10-15T11:57:53;22.80;77.70
19039;DHT22;9652;49.014;12.052;2022-10-15T12:00:32;22.80;77.60
19039;DHT22;9652;49.014;12.052;2022-10-15T12:03:06;22.90;76.90
19039;DHT22;9652;49.014;12.052;2022-10-15T12:05:43;22.90;77.10
19039;DHT22;9652;49.014;12.052;2022-10-15T12:08:14;22.90;76.90
19039;DHT22;9652;49.014;12.052;2022-10-15T12:11:03;22.90;77.70
19039;DHT22;9652;49.014;12.052;2022-10-15T12:13:42;23.00;76.40
19039;DHT22;9652;49.014;12.052;2022-10-15T12:16:24;23.00;77.20
19039;DHT22;9652;49.014;12.052;2022-10-15T12:19:01;23.10;75.30
19039;DHT22;9652;49.014;12.052;2022-10-15T12:21:39;23.10;75.30
19039;DHT22;9652;49.014;12.052;2022-10-15T12:27:31;23.20;74.70
19039;DHT22;9652;49.014;12.052;2022-10-15T12:30:22;23.20;74.60
19039;DHT22;9652;49.014;12.052;2022-10-15T12:32:53;23.30;73.90
19039;DHT22;9652;49.014;12.052;2022-10-15T12:35:27;23.30;75.40
19039;DHT22;9652;49.014;12.052;2022-10-15T12:38:09;23.30;74.60
19039;DHT22;9652;49.014;12.052;2022-10-15T12:40:44;23.30;73.50
19039;DHT22;9652;49.014;12.052;2022-10-15T12:43:14;23.30;73.80
19039;DHT22;9652;49.014;12.052;2022-10-15T12:45:50;23.30;73.30
19039;DHT22;9652;49.014;12.052;2022-10-15T12:48:28;23.20;72.70
19039;DHT22;9652;49.014;12.052;2022-10-15T12:54:31;23.10;72.50
19039;DHT22;9652;49.014;12.052;2022-10-15T13:00:35;22.90;71.80
19039;DHT22;9652;49.014;12.052;2022-10-15T13:06:26;22.60;72.90
19039;DHT22;9652;49.014;12.052;2022-10-15T13:09:25;22.60;73.00
19039;DHT22;9652;49.014;12.052;2022-10-15T13:11:56;22.50;73.40
19039;DHT22;9652;49.014;12.052;2022-10-15T13:14:31;22.50;74.60
19039;DHT22;9652;49.014;12.052;2022-10-15T13:17:04;22.50;74.60
19039;DHT22;9652;49.014;12.052;2022-10-15T13:19:46;22.60;75.30
19039;DHT22;9652;49.014;12.052;2022-10-15T13:22:25;22.60;74.90
19039;DHT22;9652;49.014;12.052;2022-10-15T13:24:54;22.70;75.20
19039;DHT22;9652;49.014;12.052;2022-10-15T13:27:23;22.80;75.20
19039;DHT22;9652;49.014;12.052;2022-10-15T13:29:54;22.80;74.70
19039;DHT22;9652;49.014;12.052;2022-10-15T13:32:24;22.90;74.40
19039;DHT22;9652;49.014;12.052;2022-10-15T13:34:53;22.90;74.50
19039;DHT22;9652;49.014;12.052;2022-10-15T13:37:27;22.90;74.30
19039;DHT22;9652;49.014;12.052;2022-10-15T13:39:57;22.90;73.70
19039;DHT22;9652;49.014;12.052;2022-10-15T13:42:25;22.80;73.60
19039;DHT22;9652;49.014;12.052;2022-10-15T13:44:59;22.70;73.90
19039;DHT22;9652;49.014;12.052;2022-10-15T13:47:32;22.70;74.50
19039;DHT22;9652;49.014;12.052;2022-10-15T13:50:19;22.60;74.70
19039;DHT22;9652;49.014;12.052;2022-10-15T13:52:51;22.60;75.50
19039;DHT22;9652;49.014;12.052;2022-10-15T13:55:23;22.60;75.00
19039;DHT22;9652;49.014;12.052;2022-10-15T13:57:57;22.60;75.30
19039;DHT22;9652;49.014;12.052;2022-10-15T14:00:29;22.60;75.40
19039;DHT22;9652;49.014;12.052;2022-10-15T14:03:16;22.60;75.60
19039;DHT22;9652;49.014;12.052;2022-10-15T14:05:47;22.60;74.60
19039;DHT22;9652;49.014;12.052;2022-10-15T14:08:20;22.70;75.00
19039;DHT22;9652;49.014;12.052;2022-10-15T14:10:51;22.70;74.70
19039;DHT22;9652;49.014;12.052;2022-10-15T14:13:20;22.70;74.50
19039;DHT22;9652;49.014;12.052;2022-10-15T14:15:57;22.70;74.10
19039;DHT22;9652;49.014;12.052;2022-10-15T14:18:31;22.70;73.30
19039;DHT22;9652;49.014;12.052;2022-10-15T14:21:00;22.60;74.10
19039;DHT22;9652;49.014;12.052;2022-10-15T14:23:28;22.70;74.60
19039;DHT22;9652;49.014;12.052;2022-10-15T14:25:58;22.70;74.70
19039;DHT22;9652;49.014;12.052;2022-10-15T14:28:28;22.70;74.40
19039;DHT22;9652;49.014;12.052;2022-10-15T14:30:59;22.80;74.20
19039;DHT22;9652;49.014;12.052;2022-10-15T14:33:29;22.80;73.80
19039;DHT22;9652;49.014;12.052;2022-10-15T14:36:08;22.80;73.70
19039;DHT22;9652;49.014;12.052;2022-10-15T14:38:38;22.80;73.30
19039;DHT22;9652;49.014;12.052;2022-10-15T14:41:23;22.80;73.20
19039;DHT22;9652;49.014;12.052;2022-10-15T14:44:04;22.80;72.30
19039;DHT22;9652;49.014;12.052;2022-10-15T14:46:45;22.70;72.50
19039;DHT22;9652;49.014;12.052;2022-10-15T14:49:23;22.70;72.70
19039;DHT22;9652;49.014;12.052;2022-10-15T14:51:55;22.60;72.90
19039;DHT22;9652;49.014;12.052;2022-10-15T14:54:32;22.60;73.10
19039;DHT22;9652;49.014;12.052;2022-10-15T14:57:03;22.50;72.40
19039;DHT22;9652;49.014;12.052;2022-10-15T14:59:34;22.40;72.50
19039;DHT22;9652;49.014;12.052;2022-10-15T15:02:09;22.30;72.40
19039;DHT22;9652;49.014;12.052;2022-10-15T15:04:43;22.20;72.50
19039;DHT22;9652;49.014;12.052;2022-10-15T15:07:13;22.20;72.90
19039;DHT22;9652;49.014;12.052;2022-10-15T15:09:42;22.10;73.20
19039;DHT22;9652;49.014;12.052;2022-10-15T15:12:16;22.00;73.50
19039;DHT22;9652;49.014;12.052;2022-10-15T15:14:46;22.00;73.40
19039;DHT22;9652;49.014;12.052;2022-10-15T15:17:17;22.00;73.80
19039;DHT22;9652;49.014;12.052;2022-10-15T15:19:47;21.90;74.10
19039;DHT22;9652;49.014;12.052;2022-10-15T15:22:16;21.90;74.60
19039;DHT22;9652;49.014;12.052;2022-10-15T15:24:46;21.90;74.80
19039;DHT22;9652;49.014;12.052;2022-10-15T15:27:23;21.90;75.00
19039;DHT22;9652;49.014;12.052;2022-10-15T15:29:53;21.90;75.00
19039;DHT22;9652;49.014;12.052;2022-10-15T15:32:23;21.90;75.00
19039;DHT22;9652;49.014;12.052;2022-10-15T15:34:51;22.00;75.00
19039;DHT22;9652;49.014;12.052;2022-10-15T15:37:20;21.90;75.00
19039;DHT22;9652;49.014;12.052;2022-10-15T15:39:49;21.90;74.80
19039;DHT22;9652;49.014;12.052;2022-10-15T15:42:18;22.00;74.50
19039;DHT22;9652;49.014;12.052;2022-10-15T15:44:47;22.00;74.00
19039;DHT22;9652;49.014;12.052;2022-10-15T15:47:15;21.90;73.50
19039;DHT22;9652;49.014;12.052;2022-10-15T15:49:44;21.90;73.30
19039;DHT22;9652;49.014;12.052;2022-10-15T15:52:12;21.80;73.20
19039;DHT22;9652;49.014;12.052;2022-10-15T15:54:41;21.60;73.00
19039;DHT22;9652;49.014;12.052;2022-10-15T15:57:10;21.60;73.00
19039;DHT22;9652;49.014;12.052;2022-10-15T15:59:38;21.50;73.00
19039;DHT22;9652;49.014;12.052;2022-10-15T16:02:06;21.30;73.00
19039;DHT22;9652;49.014;12.052;2022-10-15T16:04:33;21.30;73.20
19039;DHT22;9652;49.014;12.052;2022-10-15T16:07:02;21.10;73.30
19039;DHT22;9652;49.014;12.052;2022-10-15T16:09:30;21.00;73.50
19039;DHT22;9652;49.014;12.052;2022-10-15T16:11:57;20.90;73.60
19039;DHT22;9652;49.014;12.052;2022-10-15T16:14:26;20.80;73.90
19039;DHT22;9652;49.014;12.052;2022-10-15T16:16:54;20.70;74.40
19039;DHT22;9652;49.014;12.052;2022-10-15T16:19:21;20.60;75.00
19039;DHT22;9652;49.014;12.052;2022-10-15T16:21:49;20.60;75.30
19039;DHT22;9652;49.014;12.052;2022-10-15T16:24:18;20.60;75.60